Time;durP1;ratioP1;P1;durP2;ratioP2;P2;SDS_P1;SDS_P2;PMS_P1;PMS_P2;Temp;Humidity;BMP_temperature;BMP_pressure;BME280_temperature;BME280_humidity;BME280_pressure;Samples;Min_cycle;Max_cycle;Signal;HPM_P1;HPM_P2
2022/07/23 00:01:38;;;;;;;7.25;6.68;;;;;;;;;;10442952;28;20222;-74
2022/07/23 00:06:40;;;;;;;8.15;7.07;;;;;;;;;;10446912;28;20569;-73
2022/07/23 00:11:41;;;;;;;7.75;7.20;;;;;;;;;;10443464;28;20646;-73
2022/07/23 00:16:42;;;;;;;9.20;8.05;;;;;;;;;;10433152;28;20788;-72
2022/07/23 00:21:43;;;;;;;8.00;7.22;;;;;;;;;;10445468;28;20203;-72
2022/07/23 00:26:44;;;;;;;8.27;7.45;;;;;;;;;;10444706;28;20187;-72
2022/07/23 00:31:45;;;;;;;8.70;7.90;;;;;;;;;;10440683;28;20253;-73
2022/07/23 00:36:46;;;;;;;8.05;7.38;;;;;;;;;;10435910;28;20319;-73
2022/07/23 00:41:47;;;;;;;7.05;6.65;;;;;;;;;;10443468;28;20182;-72
2022/07/23 00:46:53;;;;;;;8.55;7.60;;;;;;;;;;10453151;28;20225;-73
2022/07/23 00:51:55;;;;;;;8.35;7.68;;;;;;;;;;10457069;28;20183;-73
2022/07/23 00:56:56;;;;;;;9.43;8.60;;;;;;;;;;10448202;28;20682;-73
2022/07/23 01:01:57;;;;;;;9.35;8.40;;;;;;;;;;10440551;28;20230;-72
2022/07/23 01:06:58;;;;;;;8.93;8.20;;;;;;;;;;10433689;28;20179;-72
2022/07/23 01:12:00;;;;;;;7.75;7.32;;;;;;;;;;10450870;28;20178;-72
2022/07/23 01:17:01;;;;;;;7.78;7.07;;;;;;;;;;10455281;28;20209;-73
2022/07/23 01:22:03;;;;;;;7.65;7.05;;;;;;;;;;10443292;28;20187;-72
2022/07/23 01:27:05;;;;;;;7.85;7.45;;;;;;;;;;10444211;28;21088;-72
2022/07/23 01:32:07;;;;;;;7.22;6.63;;;;;;;;;;10451295;28;20223;-73
2022/07/23 01:37:09;;;;;;;9.18;6.93;;;;;;;;;;10452096;28;20623;-71
2022/07/23 01:42:10;;;;;;;8.82;7.57;;;;;;;;;;10441253;28;20181;-72
2022/07/23 01:47:11;;;;;;;7.85;6.82;;;;;;;;;;10436691;28;20213;-72
2022/07/23 01:52:13;;;;;;;7.68;7.03;;;;;;;;;;10446620;28;20178;-73
2022/07/23 01:57:17;;;;;;;7.65;6.95;;;;;;;;;;10438917;28;20294;-73
2022/07/23 02:02:18;;;;;;;7.88;7.20;;;;;;;;;;10446319;28;20797;-72
2022/07/23 02:07:19;;;;;;;9.25;8.43;;;;;;;;;;10448908;28;20606;-72
2022/07/23 02:12:20;;;;;;;11.18;7.88;;;;;;;;;;10431350;28;20698;-73
2022/07/23 02:17:21;;;;;;;11.80;8.90;;;;;;;;;;10453691;28;20271;-71
2022/07/23 02:22:22;;;;;;;9.95;8.85;;;;;;;;;;10438353;28;20307;-71
2022/07/23 02:27:24;;;;;;;14.75;10.35;;;;;;;;;;10432797;28;20252;-73
2022/07/23 02:32:25;;;;;;;10.63;9.57;;;;;;;;;;10447980;28;20230;-74
2022/07/23 02:37:26;;;;;;;12.68;10.70;;;;;;;;;;10436176;28;20211;-74
2022/07/23 02:42:27;;;;;;;10.95;9.88;;;;;;;;;;10440121;28;20178;-75
2022/07/23 02:47:28;;;;;;;11.50;10.40;;;;;;;;;;10449093;28;20202;-74
2022/07/23 02:52:31;;;;;;;11.55;10.50;;;;;;;;;;10446027;28;20657;-74
2022/07/23 02:57:32;;;;;;;11.23;9.57;;;;;;;;;;10464213;28;20609;-75
2022/07/23 03:02:33;;;;;;;13.10;10.93;;;;;;;;;;10438907;28;20638;-76
2022/07/23 03:07:34;;;;;;;11.60;10.30;;;;;;;;;;10436607;28;20183;-75
2022/07/23 03:12:36;;;;;;;14.05;11.55;;;;;;;;;;10442928;28;20269;-75
2022/07/23 03:17:37;;;;;;;12.27;9.93;;;;;;;;;;10450343;28;20214;-77
2022/07/23 03:22:38;;;;;;;10.00;9.10;;;;;;;;;;10441797;28;20175;-76
2022/07/23 03:27:39;;;;;;;14.73;11.60;;;;;;;;;;10452658;28;20209;-76
2022/07/23 03:32:40;;;;;;;12.07;10.85;;;;;;;;;;10449292;28;20268;-75
2022/07/23 03:37:42;;;;;;;10.98;9.90;;;;;;;;;;10437605;28;20248;-76
2022/07/23 03:42:43;;;;;;;11.75;10.60;;;;;;;;;;10440186;28;20336;-75
2022/07/23 03:47:44;;;;;;;14.48;11.77;;;;;;;;;;10450591;28;20443;-76
2022/07/23 03:52:45;;;;;;;14.10;11.10;;;;;;;;;;10438471;28;20187;-76
2022/07/23 03:57:47;;;;;;;13.45;12.10;;;;;;;;;;10466571;28;20220;-75
2022/07/23 04:02:48;;;;;;;13.82;12.45;;;;;;;;;;10446569;28;20301;-75
2022/07/23 04:07:49;;;;;;;13.88;12.38;;;;;;;;;;10445334;28;20584;-74
2022/07/23 04:12:50;;;;;;;18.25;12.85;;;;;;;;;;10447163;28;20182;-75
2022/07/23 04:17:51;;;;;;;16.15;13.70;;;;;;;;;;10434363;28;20206;-75
2022/07/23 04:22:54;;;;;;;18.17;14.55;;;;;;;;;;10441409;28;20178;-73
2022/07/23 04:27:55;;;;;;;20.17;15.15;;;;;;;;;;10444164;28;20198;-74
2022/07/23 04:32:57;;;;;;;23.58;15.75;;;;;;;;;;10442159;28;20226;-74
2022/07/23 04:38:02;;;;;;;22.50;14.45;;;;;;;;;;10434549;28;20198;-74
2022/07/23 04:43:04;;;;;;;16.83;13.57;;;;;;;;;;10446692;28;20179;-72
2022/07/23 04:48:09;;;;;;;18.40;13.88;;;;;;;;;;10437055;28;20202;-73
2022/07/23 04:53:10;;;;;;;15.65;13.82;;;;;;;;;;10435669;28;20213;-73
2022/07/23 04:58:11;;;;;;;13.40;12.20;;;;;;;;;;10434386;28;20679;-74
2022/07/23 05:03:13;;;;;;;14.10;12.73;;;;;;;;;;10439022;28;20213;-73
2022/07/23 05:08:14;;;;;;;13.90;12.55;;;;;;;;;;10440666;28;20183;-73
2022/07/23 05:13:18;;;;;;;14.52;13.00;;;;;;;;;;10440352;28;20770;-72
2022/07/23 05:18:19;;;;;;;14.20;12.70;;;;;;;;;;10446963;28;20210;-73
2022/07/23 05:23:21;;;;;;;13.80;11.48;;;;;;;;;;10435444;28;20326;-72
2022/07/23 05:28:23;;;;;;;17.45;12.82;;;;;;;;;;10449744;28;20190;-72
2022/07/23 05:33:26;;;;;;;13.00;11.45;;;;;;;;;;10451819;28;20231;-72
2022/07/23 05:38:28;;;;;;;13.65;11.20;;;;;;;;;;10444085;28;20217;-72
2022/07/23 05:43:32;;;;;;;13.90;11.85;;;;;;;;;;10442017;28;20178;-73
2022/07/23 05:48:37;;;;;;;11.02;9.95;;;;;;;;;;10452323;28;20199;-71
2022/07/23 05:53:43;;;;;;;15.38;11.38;;;;;;;;;;10444122;28;20186;-74
2022/07/23 05:58:49;;;;;;;16.42;11.57;;;;;;;;;;10455342;28;20294;-72
2022/07/23 06:03:52;;;;;;;13.68;12.05;;;;;;;;;;10449634;28;20846;-73
2022/07/23 06:08:53;;;;;;;12.15;11.05;;;;;;;;;;10438705;28;20621;-74
2022/07/23 06:13:54;;;;;;;13.70;9.95;;;;;;;;;;10451947;28;20608;-74
2022/07/23 06:19:01;;;;;;;11.80;9.80;;;;;;;;;;10443995;28;20843;-75
2022/07/23 06:24:05;;;;;;;11.10;9.98;;;;;;;;;;10443142;28;20202;-75
2022/07/23 06:29:06;;;;;;;10.23;9.27;;;;;;;;;;10452844;28;21465;-75
2022/07/23 06:34:07;;;;;;;10.55;8.88;;;;;;;;;;10453548;28;20599;-75
2022/07/23 06:39:10;;;;;;;15.20;10.60;;;;;;;;;;10452189;28;20206;-75
2022/07/23 06:44:11;;;;;;;11.68;10.20;;;;;;;;;;10452880;28;20171;-74
2022/07/23 06:49:15;;;;;;;12.27;10.75;;;;;;;;;;10446947;28;20265;-74
2022/07/23 06:54:16;;;;;;;13.90;11.05;;;;;;;;;;10459126;28;20320;-74
2022/07/23 06:59:18;;;;;;;10.05;9.15;;;;;;;;;;10447612;28;20297;-73
2022/07/23 07:04:19;;;;;;;14.23;9.52;;;;;;;;;;10442005;28;20221;-75
2022/07/23 07:09:20;;;;;;;10.40;8.77;;;;;;;;;;10449367;28;20210;-73
2022/07/23 07:14:21;;;;;;;10.70;7.93;;;;;;;;;;10445840;28;20185;-76
2022/07/23 07:19:22;;;;;;;9.93;7.50;;;;;;;;;;10442799;28;20214;-76
2022/07/23 07:24:23;;;;;;;10.27;8.00;;;;;;;;;;10444446;28;20229;-76
2022/07/23 07:29:24;;;;;;;11.50;7.35;;;;;;;;;;10451975;28;20196;-77
2022/07/23 07:34:25;;;;;;;8.15;7.43;;;;;;;;;;10456830;28;20743;-77
2022/07/23 07:39:26;;;;;;;8.70;7.63;;;;;;;;;;10454435;28;20986;-77
2022/07/23 07:44:27;;;;;;;13.18;7.70;;;;;;;;;;10435630;28;20706;-78
2022/07/23 07:49:30;;;;;;;8.38;7.63;;;;;;;;;;10448387;28;20640;-78
2022/07/23 07:54:32;;;;;;;12.65;8.85;;;;;;;;;;10445647;28;20646;-79
2022/07/23 07:59:33;;;;;;;9.48;8.48;;;;;;;;;;10445270;28;20253;-79
2022/07/23 08:04:34;;;;;;;12.77;8.93;;;;;;;;;;10447365;28;20206;-78
2022/07/23 08:09:35;;;;;;;7.82;7.13;;;;;;;;;;10439258;28;20765;-78
2022/07/23 08:14:36;;;;;;;10.95;7.78;;;;;;;;;;10443257;28;20194;-79
2022/07/23 08:19:37;;;;;;;7.75;7.15;;;;;;;;;;10456594;28;20216;-78
2022/07/23 08:24:38;;;;;;;9.50;8.35;;;;;;;;;;10445414;28;21041;-78
2022/07/23 08:29:39;;;;;;;8.82;8.13;;;;;;;;;;10447695;28;20209;-76
2022/07/23 08:34:41;;;;;;;9.57;8.02;;;;;;;;;;10451517;28;20297;-77
2022/07/23 08:39:42;;;;;;;7.55;6.85;;;;;;;;;;10454167;28;20324;-76
2022/07/23 08:44:46;;;;;;;7.20;6.50;;;;;;;;;;10449289;28;20179;-78
2022/07/23 08:49:47;;;;;;;7.30;6.40;;;;;;;;;;10446160;28;20232;-79
2022/07/23 08:54:48;;;;;;;9.95;5.65;;;;;;;;;;10444706;28;20186;-78
2022/07/23 08:59:49;;;;;;;5.43;4.97;;;;;;;;;;10443836;28;20263;-79
2022/07/23 09:04:51;;;;;;;7.05;4.28;;;;;;;;;;10437767;28;20655;-75
2022/07/23 09:10:05;;;;;;;4.60;3.60;;;;;;;;;;10447936;28;20732;-80
2022/07/23 09:15:07;;;;;;;2.95;2.85;;;;;;;;;;10448033;28;21081;-78
2022/07/23 09:20:12;;;;;;;4.22;2.80;;;;;;;;;;10441745;28;20746;-77
2022/07/23 09:25:15;;;;;;;3.20;2.90;;;;;;;;;;10435789;28;20179;-73
2022/07/23 09:30:17;;;;;;;2.67;2.58;;;;;;;;;;10441870;28;20214;-73
2022/07/23 09:35:18;;;;;;;3.75;2.72;;;;;;;;;;10444276;28;20178;-76
2022/07/23 09:40:19;;;;;;;3.63;3.40;;;;;;;;;;10446661;28;20229;-77
2022/07/23 09:45:20;;;;;;;2.88;2.78;;;;;;;;;;10454360;28;20179;-76
2022/07/23 09:50:21;;;;;;;4.47;3.60;;;;;;;;;;10438874;28;20329;-79
2022/07/23 09:55:35;;;;;;;6.25;2.45;;;;;;;;;;10442897;28;20217;-76
2022/07/23 10:00:37;;;;;;;4.13;3.67;;;;;;;;;;10448401;28;20214;-78
2022/07/23 10:05:38;;;;;;;3.30;3.10;;;;;;;;;;10446761;28;20191;-78
2022/07/23 10:11:08;;;;;;;3.70;3.50;;;;;;;;;;10406897;28;20187;-79
2022/07/23 10:16:38;;;;;;;4.60;2.65;;;;;;;;;;10441669;28;20257;-78
2022/07/23 10:21:42;;;;;;;3.00;2.80;;;;;;;;;;10445450;28;20194;-77
2022/07/23 10:26:59;;;;;;;2.60;2.40;;;;;;;;;;10448669;28;20187;-78
2022/07/23 10:32:00;;;;;;;3.25;3.05;;;;;;;;;;10448122;28;20758;-78
2022/07/23 10:37:08;;;;;;;3.92;2.65;;;;;;;;;;10449361;28;20203;-79
2022/07/23 10:42:10;;;;;;;2.78;2.67;;;;;;;;;;10447176;28;20647;-78
2022/07/23 10:52:19;;;;;;;4.03;2.40;;;;;;;;;;10445904;28;20563;-79
2022/07/23 10:57:24;;;;;;;2.10;2.03;;;;;;;;;;10451319;28;20210;-79
2022/07/23 11:02:26;;;;;;;2.20;2.00;;;;;;;;;;10444202;28;20238;-79
2022/07/23 11:07:27;;;;;;;2.92;2.00;;;;;;;;;;10448523;28;20187;-78
2022/07/23 11:12:28;;;;;;;1.98;1.88;;;;;;;;;;10446125;28;20278;-78
2022/07/23 11:17:30;;;;;;;2.22;2.05;;;;;;;;;;10453870;28;20221;-76
2022/07/23 11:22:40;;;;;;;4.35;2.10;;;;;;;;;;10445911;28;20176;-79
2022/07/23 11:27:42;;;;;;;1.70;1.42;;;;;;;;;;10446710;28;20225;-79
2022/07/23 11:32:43;;;;;;;3.15;1.63;;;;;;;;;;10438120;28;20225;-78
2022/07/23 11:37:45;;;;;;;1.35;1.25;;;;;;;;;;10446576;28;20290;-77
2022/07/23 11:42:52;;;;;;;1.73;1.20;;;;;;;;;;10444102;28;20179;-76
2022/07/23 11:47:53;;;;;;;1.23;1.02;;;;;;;;;;10430046;28;20222;-76
2022/07/23 11:52:55;;;;;;;1.30;1.20;;;;;;;;;;10436990;28;20194;-76
2022/07/23 11:57:56;;;;;;;1.23;1.05;;;;;;;;;;10445545;28;20217;-75
2022/07/23 12:03:00;;;;;;;1.98;1.40;;;;;;;;;;10431827;28;20201;-76
2022/07/23 12:08:01;;;;;;;1.00;0.90;;;;;;;;;;10441812;28;20245;-76
2022/07/23 12:13:07;;;;;;;1.27;0.90;;;;;;;;;;10436485;28;20175;-75
2022/07/23 12:18:09;;;;;;;1.00;1.00;;;;;;;;;;10435160;28;20214;-75
2022/07/23 12:23:11;;;;;;;1.45;0.90;;;;;;;;;;10442912;28;20179;-72
2022/07/23 12:28:13;;;;;;;1.40;1.30;;;;;;;;;;10431452;28;20183;-76
2022/07/23 12:33:15;;;;;;;0.98;0.95;;;;;;;;;;10441814;28;20307;-76
2022/07/23 12:38:17;;;;;;;3.85;1.00;;;;;;;;;;10440005;28;20198;-74
2022/07/23 12:43:23;;;;;;;2.08;0.60;;;;;;;;;;10444472;28;20185;-76
2022/07/23 12:48:27;;;;;;;1.75;0.50;;;;;;;;;;10450165;28;21149;-76
2022/07/23 12:53:32;;;;;;;0.50;0.50;;;;;;;;;;10449277;28;20187;-76
2022/07/23 12:59:01;;;;;;;0.60;0.60;;;;;;;;;;10447972;28;20260;-73
2022/07/23 13:04:02;;;;;;;1.13;0.63;;;;;;;;;;10452846;28;20593;-75
2022/07/23 13:09:04;;;;;;;1.05;1.00;;;;;;;;;;10448813;28;20344;-73
2022/07/23 13:14:05;;;;;;;0.80;0.80;;;;;;;;;;10450841;28;20190;-73
2022/07/23 13:19:06;;;;;;;1.27;1.08;;;;;;;;;;10456817;28;20207;-73
2022/07/23 13:24:09;;;;;;;1.20;0.95;;;;;;;;;;10447670;28;20174;-74
2022/07/23 13:29:10;;;;;;;0.70;0.70;;;;;;;;;;10455040;28;20174;-76
2022/07/23 13:34:13;;;;;;;0.93;0.93;;;;;;;;;;10447144;28;20223;-75
2022/07/23 13:39:14;;;;;;;2.47;0.70;;;;;;;;;;10451096;28;20210;-74
2022/07/23 13:44:15;;;;;;;0.70;0.70;;;;;;;;;;10440574;28;20182;-75
2022/07/23 13:49:16;;;;;;;0.82;0.82;;;;;;;;;;10458671;28;20698;-74
2022/07/23 13:54:17;;;;;;;1.48;0.70;;;;;;;;;;10442254;28;20186;-75
2022/07/23 13:59:18;;;;;;;0.82;0.63;;;;;;;;;;10441324;28;20213;-78
2022/07/23 14:04:19;;;;;;;0.60;0.57;;;;;;;;;;10430740;28;20211;-75
2022/07/23 14:09:21;;;;;;;1.52;0.60;;;;;;;;;;10431331;28;20213;-72
2022/07/23 14:14:22;;;;;;;1.20;0.60;;;;;;;;;;10444491;28;20182;-72
2022/07/23 14:19:24;;;;;;;1.33;0.50;;;;;;;;;;10437437;28;20249;-72
2022/07/23 14:24:25;;;;;;;0.55;0.55;;;;;;;;;;10439634;28;20228;-69
2022/07/23 14:29:26;;;;;;;0.75;0.45;;;;;;;;;;10441910;28;21490;-79
2022/07/23 14:34:27;;;;;;;0.80;0.50;;;;;;;;;;10443009;28;20288;-75
2022/07/23 14:39:28;;;;;;;1.92;0.50;;;;;;;;;;10443930;28;20238;-79
2022/07/23 14:44:29;;;;;;;1.33;0.40;;;;;;;;;;10444314;28;20653;-72
2022/07/23 14:49:30;;;;;;;0.30;0.30;;;;;;;;;;10435556;28;20203;-75
2022/07/23 14:54:32;;;;;;;1.17;0.40;;;;;;;;;;10434624;28;20179;-73
2022/07/23 14:59:33;;;;;;;0.40;0.40;;;;;;;;;;10439933;28;20309;-78
2022/07/23 15:04:34;;;;;;;0.30;0.30;;;;;;;;;;10434419;28;20226;-76
2022/07/23 15:09:35;;;;;;;0.40;0.40;;;;;;;;;;10431372;28;20179;-75
2022/07/23 15:14:36;;;;;;;0.47;0.40;;;;;;;;;;10435903;28;20202;-77
2022/07/23 15:19:37;;;;;;;2.08;0.40;;;;;;;;;;10454699;28;20294;-73
2022/07/23 15:24:38;;;;;;;1.13;0.50;;;;;;;;;;10437511;28;20175;-76
2022/07/23 15:29:39;;;;;;;1.25;0.40;;;;;;;;;;10440463;28;20266;-77
2022/07/23 15:34:40;;;;;;;0.43;0.40;;;;;;;;;;10440726;28;20219;-74
2022/07/23 15:39:41;;;;;;;0.52;0.52;;;;;;;;;;10438556;28;20202;-72
2022/07/23 15:44:43;;;;;;;0.50;0.50;;;;;;;;;;10440620;28;20182;-72
2022/07/23 15:49:45;;;;;;;0.40;0.40;;;;;;;;;;10427862;28;20694;-79
2022/07/23 15:54:46;;;;;;;1.50;0.50;;;;;;;;;;10437213;28;20303;-78
2022/07/23 15:59:47;;;;;;;1.10;0.55;;;;;;;;;;10442643;28;20210;-78
2022/07/23 16:04:49;;;;;;;0.80;0.50;;;;;;;;;;10433046;28;20321;-77
2022/07/23 16:09:50;;;;;;;0.65;0.38;;;;;;;;;;10444894;28;20259;-81
2022/07/23 16:14:51;;;;;;;0.95;0.45;;;;;;;;;;10438309;28;20182;-77
2022/07/23 16:19:52;;;;;;;0.93;0.40;;;;;;;;;;10445937;28;20214;-78
2022/07/23 16:24:53;;;;;;;0.47;0.47;;;;;;;;;;10436844;28;21133;-78
2022/07/23 16:29:54;;;;;;;0.32;0.30;;;;;;;;;;10444275;28;20193;-74
2022/07/23 16:34:56;;;;;;;0.30;0.30;;;;;;;;;;10423266;28;20318;-70
2022/07/23 16:39:57;;;;;;;1.30;0.40;;;;;;;;;;10445411;28;20218;-74
2022/07/23 16:44:58;;;;;;;1.05;0.40;;;;;;;;;;10433622;28;20175;-75
2022/07/23 16:50:00;;;;;;;0.45;0.45;;;;;;;;;;10443229;28;20317;-78
2022/07/23 16:55:01;;;;;;;1.50;0.40;;;;;;;;;;10429829;28;20833;-78
2022/07/23 17:00:03;;;;;;;0.68;0.30;;;;;;;;;;10438895;28;20207;-77
2022/07/23 17:05:07;;;;;;;1.77;0.35;;;;;;;;;;10416737;28;20321;-78
2022/07/23 17:10:09;;;;;;;0.40;0.28;;;;;;;;;;10441384;28;20187;-76
2022/07/23 17:15:10;;;;;;;0.90;0.30;;;;;;;;;;10435381;28;20182;-78
2022/07/23 17:20:11;;;;;;;0.28;0.28;;;;;;;;;;10436085;28;20238;-76
2022/07/23 17:25:13;;;;;;;0.30;0.30;;;;;;;;;;10435402;28;20182;-76
2022/07/23 17:30:15;;;;;;;0.40;0.20;;;;;;;;;;10448790;28;20219;-76
2022/07/23 17:35:16;;;;;;;0.35;0.20;;;;;;;;;;10453058;28;20301;-76
2022/07/23 17:40:17;;;;;;;3.65;0.50;;;;;;;;;;10458546;28;20213;-79
2022/07/23 17:45:19;;;;;;;0.50;0.50;;;;;;;;;;10449757;28;20195;-78
2022/07/23 17:50:20;;;;;;;2.20;0.70;;;;;;;;;;10453993;28;20734;-78
2022/07/23 17:55:22;;;;;;;0.52;0.30;;;;;;;;;;10449537;28;20179;-68
2022/07/23 18:00:25;;;;;;;2.42;0.30;;;;;;;;;;10438709;28;20206;-67
2022/07/23 18:05:26;;;;;;;0.40;0.40;;;;;;;;;;10442866;28;20175;-68
2022/07/23 18:10:27;;;;;;;0.98;0.35;;;;;;;;;;10439942;28;20243;-67
2022/07/23 18:15:28;;;;;;;4.45;0.50;;;;;;;;;;10441432;28;20190;-66
2022/07/23 18:20:29;;;;;;;0.68;0.52;;;;;;;;;;10437415;28;20202;-66
2022/07/23 18:25:31;;;;;;;0.30;0.30;;;;;;;;;;10437422;28;20218;-66
2022/07/23 18:30:32;;;;;;;1.27;0.40;;;;;;;;;;10430308;28;20376;-67
2022/07/23 18:35:33;;;;;;;1.10;0.40;;;;;;;;;;10444857;28;20664;-65
2022/07/23 18:40:35;;;;;;;0.60;0.40;;;;;;;;;;10444446;28;20191;-65
2022/07/23 18:45:36;;;;;;;3.03;0.30;;;;;;;;;;10442834;28;20891;-67
2022/07/23 18:50:37;;;;;;;3.83;0.50;;;;;;;;;;10440782;28;20248;-67
2022/07/23 18:55:39;;;;;;;1.38;0.40;;;;;;;;;;10439888;28;20210;-66
2022/07/23 19:00:42;;;;;;;1.65;0.47;;;;;;;;;;10427115;28;20203;-73
2022/07/23 19:05:43;;;;;;;5.13;0.40;;;;;;;;;;10429855;28;20175;-74
2022/07/23 19:10:44;;;;;;;0.30;0.30;;;;;;;;;;10430763;28;20182;-74
2022/07/23 19:15:46;;;;;;;0.88;0.60;;;;;;;;;;10443551;28;20561;-74
2022/07/23 19:20:47;;;;;;;0.90;0.30;;;;;;;;;;10440423;28;20878;-74
2022/07/23 19:25:48;;;;;;;1.17;0.50;;;;;;;;;;10445866;28;20198;-72
2022/07/23 19:30:49;;;;;;;0.52;0.40;;;;;;;;;;10435445;28;20218;-77
2022/07/23 19:35:50;;;;;;;0.40;0.40;;;;;;;;;;10459652;28;20270;-78
2022/07/23 19:40:51;;;;;;;5.63;0.30;;;;;;;;;;10441028;28;20212;-80
2022/07/23 19:45:52;;;;;;;0.50;0.50;;;;;;;;;;10434873;28;20187;-76
2022/07/23 19:50:54;;;;;;;3.58;0.50;;;;;;;;;;10438220;28;20191;-75
2022/07/23 19:55:55;;;;;;;1.60;0.52;;;;;;;;;;10443878;28;20235;-75
2022/07/23 20:00:56;;;;;;;1.17;1.10;;;;;;;;;;10448807;28;20252;-83
2022/07/23 20:05:57;;;;;;;0.50;0.50;;;;;;;;;;10446081;28;20190;-81
2022/07/23 20:10:58;;;;;;;3.03;0.40;;;;;;;;;;10446648;28;20278;-74
2022/07/23 20:16:00;;;;;;;3.85;0.40;;;;;;;;;;10429343;28;20207;-77
2022/07/23 20:21:01;;;;;;;0.30;0.30;;;;;;;;;;10442383;28;20269;-79
2022/07/23 20:26:02;;;;;;;0.60;0.43;;;;;;;;;;10447904;28;20183;-76
2022/07/23 20:31:03;;;;;;;0.40;0.40;;;;;;;;;;10423799;28;20219;-74
2022/07/23 20:36:05;;;;;;;0.50;0.40;;;;;;;;;;10440451;28;20697;-73
2022/07/23 20:41:06;;;;;;;0.30;0.30;;;;;;;;;;10439952;28;20183;-73
2022/07/23 20:46:07;;;;;;;0.40;0.40;;;;;;;;;;10443805;28;20716;-76
2022/07/23 20:51:08;;;;;;;0.95;0.40;;;;;;;;;;10442004;28;20252;-74
2022/07/23 20:56:09;;;;;;;1.75;0.40;;;;;;;;;;10463135;28;20210;-76
2022/07/23 21:01:10;;;;;;;0.40;0.40;;;;;;;;;;10445187;28;20214;-77
2022/07/23 21:06:11;;;;;;;0.50;0.50;;;;;;;;;;10454787;28;20260;-78
2022/07/23 21:11:13;;;;;;;1.60;0.50;;;;;;;;;;10458920;28;20190;-76
2022/07/23 21:16:14;;;;;;;1.45;0.50;;;;;;;;;;10450858;28;20208;-77
2022/07/23 21:21:16;;;;;;;0.75;0.50;;;;;;;;;;10452946;28;20233;-75
2022/07/23 21:26:17;;;;;;;1.02;0.82;;;;;;;;;;10445508;28;20175;-78
2022/07/23 21:31:18;;;;;;;0.70;0.70;;;;;;;;;;10444847;28;20226;-77
2022/07/23 21:36:19;;;;;;;0.90;0.68;;;;;;;;;;10450186;28;20505;-75
2022/07/23 21:41:20;;;;;;;1.65;0.50;;;;;;;;;;10459711;28;20630;-76
2022/07/23 21:46:21;;;;;;;1.58;0.47;;;;;;;;;;10452652;28;20182;-75
2022/07/23 21:51:23;;;;;;;2.75;0.60;;;;;;;;;;10439712;28;20744;-76
2022/07/23 21:56:24;;;;;;;1.20;0.50;;;;;;;;;;10461873;28;20682;-76
2022/07/23 22:01:25;;;;;;;3.90;0.60;;;;;;;;;;10453204;28;20218;-75
2022/07/23 22:06:26;;;;;;;1.45;0.80;;;;;;;;;;10452582;28;20194;-75
2022/07/23 22:11:27;;;;;;;1.45;0.60;;;;;;;;;;10450044;28;20202;-74
2022/07/23 22:16:30;;;;;;;0.85;0.85;;;;;;;;;;10449602;28;20573;-75
2022/07/23 22:21:31;;;;;;;2.90;1.05;;;;;;;;;;10447265;28;20251;-74
2022/07/23 22:26:32;;;;;;;4.97;1.05;;;;;;;;;;10437673;28;20206;-75
2022/07/23 22:31:33;;;;;;;1.73;0.80;;;;;;;;;;10444280;28;20314;-75
2022/07/23 22:36:35;;;;;;;1.55;0.75;;;;;;;;;;10447859;28;20242;-74
2022/07/23 22:41:36;;;;;;;0.80;0.80;;;;;;;;;;10450678;28;20659;-74
2022/07/23 22:46:37;;;;;;;3.30;0.77;;;;;;;;;;10447806;28;20197;-75
2022/07/23 22:51:38;;;;;;;0.70;0.70;;;;;;;;;;10439939;28;20350;-74
2022/07/23 22:56:39;;;;;;;0.57;0.57;;;;;;;;;;10440222;28;20686;-74
2022/07/23 23:01:40;;;;;;;0.60;0.60;;;;;;;;;;10458249;28;20218;-74
2022/07/23 23:06:41;;;;;;;0.98;0.85;;;;;;;;;;10446083;28;20186;-75
2022/07/23 23:11:42;;;;;;;2.17;0.90;;;;;;;;;;10449694;28;20174;-73
2022/07/23 23:16:43;;;;;;;1.63;0.70;;;;;;;;;;10445228;28;20203;-74
2022/07/23 23:21:44;;;;;;;1.05;0.90;;;;;;;;;;10452394;28;20199;-74
2022/07/23 23:26:45;;;;;;;0.80;0.80;;;;;;;;;;10447199;28;20286;-73
2022/07/23 23:31:46;;;;;;;3.78;0.80;;;;;;;;;;10439017;28;20254;-73
2022/07/23 23:36:47;;;;;;;0.80;0.80;;;;;;;;;;10452916;28;20202;-73
2022/07/23 23:41:48;;;;;;;1.00;1.00;;;;;;;;;;10451285;28;20257;-74
2022/07/23 23:46:50;;;;;;;0.82;0.82;;;;;;;;;;10450028;28;20205;-74
2022/07/23 23:51:51;;;;;;;1.33;0.90;;;;;;;;;;10448639;28;20183;-74
2022/07/23 23:56:52;;;;;;;1.13;1.10;;;;;;;;;;10448146;28;20760;-74
